Time;durP1;ratioP1;P1;durP2;ratioP2;P2;SDS_P1;SDS_P2;PMS_P1;PMS_P2;Temp;Humidity;BMP_temperature;BMP_pressure;BME280_temperature;BME280_humidity;BME280_pressure;Samples;Min_cycle;Max_cycle;Signal;HPM_P1;HPM_P2
2022/04/17 00:02:08;;;;;;;23.92;11.45;;;;;;;1.76;60.15;101791.48;2049737;86;32990;-63
2022/04/17 00:05:11;;;;;;;23.18;11.33;;;;;;;1.74;60.12;101791.02;2050050;86;30142;-63
2022/04/17 00:08:13;;;;;;;17.07;9.78;;;;;;;1.72;60.25;101791.43;2029507;86;28202;-60
2022/04/17 00:11:15;;;;;;;27.32;11.05;;;;;;;1.67;60.20;101785.66;2049261;86;28691;-63
2022/04/17 00:14:17;;;;;;;22.52;10.05;;;;;;;1.62;60.31;101775.91;2051906;86;31849;-60
2022/04/17 00:17:19;;;;;;;19.12;9.88;;;;;;;1.58;60.36;101775.41;2052850;86;33022;-60
2022/04/17 00:20:21;;;;;;;16.87;8.85;;;;;;;1.54;60.47;101774.50;2040309;86;29442;-61
2022/04/17 00:23:23;;;;;;;20.55;9.58;;;;;;;1.49;60.48;101777.55;2036023;87;27692;-60
2022/04/17 00:26:26;;;;;;;16.40;7.75;;;;;;;1.45;60.51;101784.97;2049073;86;28674;-60
2022/04/17 00:29:28;;;;;;;16.32;8.03;;;;;;;1.41;60.49;101788.44;2058024;86;33241;-63
2022/04/17 00:32:31;;;;;;;16.30;7.50;;;;;;;1.36;60.65;101781.78;2051527;86;35103;-61
2022/04/17 00:35:34;;;;;;;18.27;7.45;;;;;;;1.33;60.67;101781.29;2040490;86;30250;-61
2022/04/17 00:38:36;;;;;;;15.55;7.10;;;;;;;1.29;60.75;101780.82;2037554;87;27692;-62
2022/04/17 00:41:38;;;;;;;15.23;7.75;;;;;;;1.26;60.64;101779.88;2041195;86;27686;-61
2022/04/17 00:44:40;;;;;;;15.93;7.20;;;;;;;1.23;60.80;101780.73;2051509;86;30989;-61
2022/04/17 00:47:42;;;;;;;15.35;7.55;;;;;;;1.17;60.82;101773.63;2041652;86;33037;-63
2022/04/17 00:50:45;;;;;;;18.67;8.33;;;;;;;1.12;60.98;101772.66;2035630;87;29739;-60
2022/04/17 00:53:47;;;;;;;17.42;9.00;;;;;;;1.06;61.07;101782.71;2043957;86;27697;-64
2022/04/17 00:56:52;;;;;;;20.70;8.55;;;;;;;1.02;61.07;101781.34;2052745;86;29091;-67
2022/04/17 00:59:57;;;;;;;23.65;12.53;;;;;;;0.96;61.08;101778.19;2036819;87;31113;-61
2022/04/17 01:03:00;;;;;;;22.42;10.80;;;;;;;0.91;61.19;101774.58;2047777;86;33019;-59
2022/04/17 01:06:02;;;;;;;34.20;15.03;;;;;;;0.85;61.29;101773.16;2028588;86;29417;-60
2022/04/17 01:09:03;;;;;;;37.95;18.55;;;;;;;0.79;61.12;101771.78;2061473;85;27752;-60
2022/04/17 01:12:10;;;;;;;34.05;18.12;;;;;;;0.72;61.26;101768.16;2057524;86;28651;-61
2022/04/17 01:15:12;;;;;;;28.23;14.78;;;;;;;0.69;61.48;101770.75;2056595;86;31030;-60
2022/04/17 01:18:14;;;;;;;36.40;17.82;;;;;;;0.63;61.66;101770.23;2055500;85;33686;-59
2022/04/17 01:21:18;;;;;;;31.45;15.50;;;;;;;0.57;61.58;101772.77;2082093;85;29375;-59
2022/04/17 01:28:40;;;;;;;31.65;16.48;;;;;;;0.45;61.99;101773.03;2117851;83;27974;-66
2022/04/17 01:31:49;;;;;;;31.20;16.00;;;;;;;0.38;62.06;101766.32;2117925;83;31128;-65
2022/04/17 01:34:58;;;;;;;29.15;15.15;;;;;;;0.32;62.17;101771.06;2117744;83;33032;-66
2022/04/17 01:38:04;;;;;;;28.07;16.30;;;;;;;0.27;62.38;101767.01;2118121;83;29391;-66
2022/04/17 01:41:10;;;;;;;30.32;15.30;;;;;;;0.24;62.67;101763.03;2118357;83;27777;-67
2022/04/17 01:44:16;;;;;;;29.42;16.02;;;;;;;0.21;62.55;101771.30;2118143;83;28704;-66
2022/04/17 01:47:20;;;;;;;39.88;19.82;;;;;;;0.16;62.67;101773.86;2118184;83;31246;-67
2022/04/17 01:50:22;;;;;;;23.20;11.45;;;;;;;0.14;62.79;101779.53;2121115;83;35526;-67
2022/04/17 01:53:24;;;;;;;28.17;14.70;;;;;;;0.10;63.00;101770.69;2098464;83;29313;-68
2022/04/17 01:56:26;;;;;;;27.52;13.45;;;;;;;0.06;63.13;101770.62;2121099;83;27956;-67
2022/04/17 01:59:28;;;;;;;30.90;15.63;;;;;;;0.01;63.20;101761.29;2121053;83;28606;-67
2022/04/17 02:02:30;;;;;;;27.27;13.83;;;;;;;-0.03;63.28;101754.22;2121122;83;31049;-68
2022/04/17 02:05:32;;;;;;;34.33;16.75;;;;;;;-0.06;63.28;101754.16;2098091;83;33733;-68
2022/04/17 02:08:34;;;;;;;24.00;13.48;;;;;;;-0.08;63.34;101750.61;2121145;83;29313;-68
2022/04/17 02:11:36;;;;;;;28.67;14.65;;;;;;;-0.12;63.38;101745.72;2121295;83;27581;-68
2022/04/17 02:14:38;;;;;;;32.23;15.80;;;;;;;-0.12;63.52;101749.67;2121271;83;28626;-68
2022/04/17 02:17:41;;;;;;;38.48;17.95;;;;;;;-0.15;63.52;101745.66;2121149;83;31089;-68
2022/04/17 02:20:43;;;;;;;34.63;16.50;;;;;;;-0.17;63.55;101741.70;2121046;83;33582;-67
2022/04/17 02:23:46;;;;;;;39.95;16.15;;;;;;;-0.18;63.61;101741.23;2121022;83;29335;-68
2022/04/17 02:26:51;;;;;;;34.67;16.97;;;;;;;-0.20;63.73;101736.36;2121176;83;27891;-68
2022/04/17 02:29:53;;;;;;;39.63;16.32;;;;;;;-0.24;63.78;101739.80;2121280;83;28667;-68
2022/04/17 02:32:55;;;;;;;33.30;15.43;;;;;;;-0.26;63.85;101743.27;2121079;83;30983;-68
2022/04/17 02:35:58;;;;;;;38.17;16.32;;;;;;;-0.29;64.04;101744.52;2121133;83;33565;-68
2022/04/17 02:38:59;;;;;;;34.75;17.32;;;;;;;-0.33;64.03;101740.95;2098038;83;29532;-68
2022/04/17 02:42:02;;;;;;;27.95;14.23;;;;;;;-0.36;64.11;101736.94;2120033;83;27718;-69
2022/04/17 02:45:05;;;;;;;27.62;14.13;;;;;;;-0.38;64.17;101747.42;2120671;83;28624;-70
2022/04/17 02:48:08;;;;;;;29.10;14.45;;;;;;;-0.40;64.29;101741.69;2120566;83;31182;-67
2022/04/17 02:51:12;;;;;;;25.50;13.90;;;;;;;-0.44;64.30;101741.16;2121088;83;32993;-67
2022/04/17 02:54:16;;;;;;;38.47;17.47;;;;;;;-0.47;64.40;101748.13;2118512;83;29327;-68
2022/04/17 02:57:20;;;;;;;29.90;16.07;;;;;;;-0.48;64.49;101753.38;2118274;83;27723;-69
2022/04/17 03:00:26;;;;;;;33.10;17.92;;;;;;;-0.50;64.51;101756.41;2117531;83;28638;-68
2022/04/17 03:06:49;;;;;;;29.57;15.48;;;;;;;-0.55;64.76;101763.32;2121046;83;33035;-68
2022/04/17 03:09:52;;;;;;;30.55;15.60;;;;;;;-0.60;64.79;101763.23;2121084;83;29357;-70
2022/04/17 03:12:53;;;;;;;27.13;16.20;;;;;;;-0.62;64.87;101763.22;2121263;83;27530;-69
2022/04/17 03:15:55;;;;;;;31.57;16.40;;;;;;;-0.62;65.02;101767.58;2121144;83;28609;-68
2022/04/17 03:18:57;;;;;;;31.60;16.40;;;;;;;-0.64;65.00;101772.82;2121077;83;31013;-68
2022/04/17 03:21:59;;;;;;;37.38;16.75;;;;;;;-0.65;65.12;101771.45;2121129;83;33034;-69
2022/04/17 03:25:07;;;;;;;30.02;15.68;;;;;;;-0.66;65.20;101773.66;2119476;83;29338;-69
2022/04/17 03:28:09;;;;;;;31.12;16.37;;;;;;;-0.67;65.19;101772.75;2118326;83;27569;-69
2022/04/17 03:31:11;;;;;;;33.65;16.02;;;;;;;-0.69;65.22;101773.59;2118259;83;28622;-68
2022/04/17 03:34:13;;;;;;;34.45;15.30;;;;;;;-0.70;65.36;101771.81;2118237;83;31017;-69
2022/04/17 03:37:15;;;;;;;27.25;15.95;;;;;;;-0.70;65.44;101767.86;2118241;83;33688;-69
2022/04/17 03:40:17;;;;;;;29.52;14.45;;;;;;;-0.70;65.49;101767.42;2118400;83;29347;-69
2022/04/17 03:43:19;;;;;;;25.40;13.28;;;;;;;-0.70;65.67;101767.42;2118033;84;27981;-68
2022/04/17 03:46:21;;;;;;;26.70;14.05;;;;;;;-0.69;65.61;101773.14;2092570;85;28639;-68
2022/04/17 03:49:23;;;;;;;29.07;14.58;;;;;;;-0.68;65.64;101767.47;2118228;83;30988;-68
2022/04/17 03:52:25;;;;;;;26.85;13.58;;;;;;;-0.66;65.71;101772.34;2092599;85;33688;-68
2022/04/17 03:55:26;;;;;;;24.43;13.28;;;;;;;-0.63;65.85;101773.69;2118212;83;29338;-68
2022/04/17 03:58:28;;;;;;;25.90;14.03;;;;;;;-0.61;65.91;101770.67;2092759;85;27970;-68
2022/04/17 04:01:30;;;;;;;24.47;13.30;;;;;;;-0.57;65.94;101767.66;2118249;83;28584;-68
2022/04/17 04:04:32;;;;;;;24.43;13.78;;;;;;;-0.52;66.02;101777.45;2118341;83;31030;-68
2022/04/17 04:07:35;;;;;;;24.65;13.03;;;;;;;-0.46;66.10;101780.19;2118195;83;32931;-67
2022/04/17 04:10:44;;;;;;;25.90;13.20;;;;;;;-0.38;66.18;101774.20;2115264;83;29280;-67
2022/04/17 04:13:50;;;;;;;24.85;12.85;;;;;;;-0.29;66.24;101777.44;2116389;83;27989;-67
2022/04/17 04:16:59;;;;;;;24.70;13.50;;;;;;;-0.19;66.31;101775.02;2115231;83;28639;-67
2022/04/17 04:20:04;;;;;;;28.23;14.45;;;;;;;-0.08;66.35;101779.14;2115241;83;30973;-66
2022/04/17 04:23:14;;;;;;;24.55;14.10;;;;;;;0.04;66.28;101777.16;2115236;83;33594;-67
2022/04/17 04:26:24;;;;;;;25.17;13.03;;;;;;;0.17;66.42;101769.49;2114885;83;29544;-66
2022/04/17 04:29:27;;;;;;;24.57;12.50;;;;;;;0.27;66.37;101767.45;2089486;85;27973;-66
2022/04/17 04:32:31;;;;;;;22.55;12.90;;;;;;;0.37;66.42;101766.73;2116945;83;28639;-67
2022/04/17 04:35:37;;;;;;;23.22;10.82;;;;;;;0.48;66.27;101764.72;2089874;84;31723;-67
2022/04/17 04:38:44;;;;;;;23.50;13.10;;;;;;;0.59;66.31;101767.09;2115233;83;33653;-67
2022/04/17 04:41:49;;;;;;;25.40;13.05;;;;;;;0.69;66.36;101762.84;2115259;83;29331;-67
2022/04/17 04:51:47;;;;;;;22.22;12.50;;;;;;;1.08;66.15;101766.88;2115025;83;31553;-66
2022/04/17 04:54:51;;;;;;;;;;;;;;;1.29;66.12;101761.02;2117293;83;34507;-67
2022/04/17 04:58:03;;;;;;;23.80;12.33;;;;;;;1.55;66.04;101757.79;2115347;83;29381;-68
2022/04/17 05:01:09;;;;;;;23.07;12.82;;;;;;;1.81;65.79;101758.07;2095832;84;27935;-68
2022/04/17 05:04:12;;;;;;;28.23;14.23;;;;;;;2.17;65.46;101755.75;2118171;83;28696;-68
2022/04/17 05:07:14;;;;;;;21.40;11.95;;;;;;;2.58;65.25;101759.17;2118120;83;31048;-68
2022/04/17 05:10:15;;;;;;;23.52;12.18;;;;;;;3.09;64.80;101750.66;2117810;83;33571;-68
2022/04/17 05:13:17;;;;;;;24.12;11.97;;;;;;;3.71;64.31;101748.67;2118186;83;29311;-68
2022/04/17 05:16:19;;;;;;;20.77;11.55;;;;;;;4.32;63.85;101751.80;2118276;83;27669;-68
2022/04/17 05:19:24;;;;;;;25.27;11.73;;;;;;;4.92;63.13;101749.95;2118141;83;29294;-68
2022/04/17 05:22:31;;;;;;;19.77;10.45;;;;;;;5.48;62.37;101749.30;2118077;83;31185;-68
2022/04/17 05:25:28;;;;;;;19.55;10.03;;;;;;;5.83;61.44;101750.00;2116736;83;33943;-67
2022/04/17 05:28:31;;;;;;;21.35;9.95;;;;;;;5.98;60.60;101746.34;2118117;83;29392;-68
2022/04/17 05:31:33;;;;;;;17.40;10.18;;;;;;;6.02;59.61;101743.70;2092309;84;27997;-67
2022/04/17 05:34:40;;;;;;;20.23;10.03;;;;;;;6.02;59.68;101746.80;2114971;83;28683;-67
2022/04/17 05:37:42;;;;;;;21.82;9.15;;;;;;;5.98;59.67;101748.56;2094089;85;31029;-68
2022/04/17 05:40:51;;;;;;;21.10;10.05;;;;;;;5.92;59.27;101753.49;2118324;83;32976;-68
2022/04/17 05:43:53;;;;;;;17.57;9.58;;;;;;;5.85;59.08;101748.22;2092813;84;29289;-68
2022/04/17 05:46:55;;;;;;;16.70;8.70;;;;;;;5.87;59.12;101744.65;2118420;83;27939;-68
2022/04/17 05:49:59;;;;;;;15.72;9.20;;;;;;;6.07;58.80;101741.00;2092797;85;28661;-68
2022/04/17 05:53:02;;;;;;;16.20;8.65;;;;;;;6.32;58.99;101739.45;2118288;83;31012;-68
2022/04/17 05:56:06;;;;;;;17.23;9.08;;;;;;;6.51;58.23;101734.41;2092702;85;32975;-68
2022/04/17 05:59:08;;;;;;;14.23;8.55;;;;;;;6.76;57.68;101746.16;2118176;83;29330;-68
2022/04/17 06:02:11;;;;;;;14.07;8.48;;;;;;;7.01;57.80;101742.34;2092670;84;27628;-70
2022/04/17 06:05:15;;;;;;;16.42;8.45;;;;;;;7.26;56.55;101742.94;2118234;83;28710;-70
2022/04/17 06:08:18;;;;;;;14.60;9.00;;;;;;;7.62;56.25;101737.98;2092324;84;34784;-71
2022/04/17 06:11:20;;;;;;;15.85;8.43;;;;;;;8.04;56.21;101739.60;2118103;83;33033;-71
2022/04/17 06:14:22;;;;;;;14.50;8.73;;;;;;;8.44;55.77;101738.05;2092648;84;29380;-71
2022/04/17 06:17:24;;;;;;;14.60;7.75;;;;;;;8.92;54.62;101732.31;2118285;83;27706;-71
2022/04/17 06:20:27;;;;;;;14.85;7.80;;;;;;;9.43;53.82;101730.81;2094494;85;28660;-72
2022/04/17 06:23:29;;;;;;;14.98;7.30;;;;;;;9.79;54.19;101727.33;2117828;84;31077;-72
2022/04/17 06:26:32;;;;;;;10.78;6.42;;;;;;;10.26;53.55;101726.23;2077789;84;33010;-71
2022/04/17 06:29:35;;;;;;;16.52;7.35;;;;;;;10.79;52.91;101724.42;2071861;85;29386;-72
2022/04/17 06:32:38;;;;;;;11.73;6.80;;;;;;;11.50;52.49;101722.34;2090874;85;27994;-72
2022/04/17 06:35:40;;;;;;;11.88;6.85;;;;;;;12.21;51.68;101723.73;2127515;83;28853;-73
2022/04/17 06:38:42;;;;;;;13.00;5.25;;;;;;;12.79;50.60;101722.66;2127123;83;31071;-72
2022/04/17 06:41:49;;;;;;;10.45;5.87;;;;;;;13.17;47.83;101712.27;2124336;83;33576;-71
2022/04/17 06:44:51;;;;;;;8.00;5.10;;;;;;;13.36;47.55;101713.81;2127359;83;29382;-72
2022/04/17 06:47:55;;;;;;;11.65;6.35;;;;;;;13.76;47.08;101710.05;2127404;83;27840;-72
2022/04/17 06:50:57;;;;;;;8.73;5.85;;;;;;;14.12;47.12;101711.69;2106913;83;28641;-72
2022/04/17 06:53:59;;;;;;;8.33;5.42;;;;;;;14.58;45.55;101701.21;2106778;83;31013;-73
2022/04/17 06:57:04;;;;;;;8.95;5.42;;;;;;;14.58;45.55;101701.21;2076210;83;28626;-72
2022/04/17 07:00:11;;;;;;;6.75;4.78;;;;;;;14.78;43.83;101699.03;2127044;83;29519;-72
2022/04/17 07:03:14;;;;;;;8.28;5.03;;;;;;;14.81;43.03;101702.05;2127046;83;27716;-73
2022/04/17 07:06:17;;;;;;;9.83;4.92;;;;;;;14.80;41.57;101707.05;2124035;83;28696;-70
2022/04/17 07:09:19;;;;;;;8.65;4.90;;;;;;;15.00;43.20;101702.08;2127233;83;31103;-74
2022/04/17 07:12:24;;;;;;;6.58;4.80;;;;;;;15.34;43.06;101705.46;2124047;83;33056;-73
2022/04/17 07:15:26;;;;;;;7.70;3.98;;;;;;;15.57;42.00;101698.55;2127579;83;29371;-73
2022/04/17 07:18:28;;;;;;;7.10;4.33;;;;;;;15.47;40.87;101698.12;2127503;83;27697;-73
2022/04/17 07:21:30;;;;;;;6.33;3.75;;;;;;;15.58;40.32;101703.01;2127205;83;28626;-74
2022/04/17 07:24:35;;;;;;;9.25;4.28;;;;;;;15.60;40.24;101704.67;2123551;83;31772;-73
2022/04/17 07:27:47;;;;;;;7.50;3.62;;;;;;;15.70;39.35;101698.84;2097969;84;32978;-72
2022/04/17 07:30:50;;;;;;;6.12;3.60;;;;;;;15.78;39.22;101698.87;2092627;84;29521;-72
2022/04/17 07:33:57;;;;;;;6.12;3.98;;;;;;;16.08;37.80;101698.78;2115201;83;27891;-71
2022/04/17 07:36:59;;;;;;;6.40;3.83;;;;;;;16.20;38.31;101690.53;2072934;85;28640;-71
2022/04/17 07:40:13;;;;;;;8.20;3.40;;;;;;;16.27;37.98;101680.27;2117758;84;31130;-71
2022/04/17 07:43:17;;;;;;;;;;;;;;;16.34;38.28;101679.02;2091521;85;33131;-73
2022/04/17 07:46:26;;;;;;;6.67;3.87;;;;;;;16.39;35.55;101687.73;2112289;84;29320;-72
2022/04/17 07:49:29;;;;;;;7.53;4.03;;;;;;;16.01;35.53;101671.19;2095195;84;27907;-71
2022/04/17 07:52:44;;;;;;;4.58;3.27;;;;;;;15.80;36.44;101673.11;2112287;84;28637;-72
2022/04/17 07:55:43;;;;;;;5.33;3.45;;;;;;;15.83;37.33;101666.20;2113415;83;31028;-69
2022/04/17 07:58:48;;;;;;;5.65;3.42;;;;;;;16.20;37.38;101663.48;2115106;84;33123;-72
2022/04/17 08:02:01;;;;;;;4.62;2.95;;;;;;;16.43;36.53;101668.19;2112304;84;29317;-69
2022/04/17 08:05:01;;;;;;;4.90;3.40;;;;;;;16.58;36.12;101664.67;2111576;83;27902;-70
2022/04/17 08:08:04;;;;;;;5.72;3.17;;;;;;;16.50;35.27;101661.02;2095009;84;28551;-70
2022/04/17 08:11:07;;;;;;;4.78;3.30;;;;;;;16.55;35.66;101658.07;2115146;83;31075;-69
2022/04/17 08:14:11;;;;;;;4.10;3.02;;;;;;;16.67;35.81;101643.87;2114054;84;33012;-69
2022/04/17 08:17:17;;;;;;;7.90;3.55;;;;;;;16.67;35.37;101651.14;2113705;84;29433;-70
2022/04/17 08:20:20;;;;;;;6.05;3.67;;;;;;;16.67;35.26;101647.08;2115430;83;27917;-69
2022/04/17 08:23:25;;;;;;;5.85;3.22;;;;;;;16.62;35.38;101650.03;2112312;84;28662;-69
2022/04/17 08:26:28;;;;;;;5.30;3.77;;;;;;;16.49;34.82;101640.34;2095218;84;32409;-70
2022/04/17 08:29:32;;;;;;;5.35;3.72;;;;;;;16.44;33.73;101641.54;2115132;84;33022;-69
2022/04/17 08:32:37;;;;;;;5.50;3.50;;;;;;;16.24;35.19;101642.11;2115425;83;29378;-68
2022/04/17 08:35:46;;;;;;;5.05;2.87;;;;;;;16.32;35.30;101639.86;2113393;84;27905;-69
2022/04/17 08:38:50;;;;;;;6.28;3.77;;;;;;;16.40;34.96;101629.53;2115373;83;28642;-65
2022/04/17 08:41:54;;;;;;;5.70;3.98;;;;;;;16.34;34.54;101630.33;2111819;83;31004;-61
2022/04/17 08:44:59;;;;;;;6.42;4.58;;;;;;;16.31;34.91;101628.64;2111906;83;32954;-60
2022/04/17 08:48:05;;;;;;;6.60;4.37;;;;;;;16.23;34.13;101627.69;2114740;83;29327;-61
2022/04/17 08:51:10;;;;;;;7.72;3.72;;;;;;;16.03;34.48;101622.47;2111717;84;27848;-59
2022/04/17 08:54:15;;;;;;;6.83;4.20;;;;;;;15.75;34.57;101626.52;2111706;83;28651;-61
2022/04/17 08:57:21;;;;;;;6.50;3.83;;;;;;;15.46;34.46;101620.74;2091163;84;32004;-60
2022/04/17 09:00:24;;;;;;;8.55;4.00;;;;;;;15.24;34.50;101614.17;2111555;83;34856;-60
2022/04/17 09:03:29;;;;;;;6.47;3.10;;;;;;;15.07;34.74;101611.80;2110870;83;29327;-61
2022/04/17 09:06:37;;;;;;;5.05;3.22;;;;;;;14.92;35.06;101586.89;2110925;83;27983;-59
2022/04/17 09:09:53;;;;;;;5.53;3.20;;;;;;;14.83;34.88;101609.78;2110625;83;28701;-60
2022/04/17 09:13:00;;;;;;;5.55;3.02;;;;;;;14.63;34.81;101603.45;2110763;84;31102;-60
2022/04/17 09:16:04;;;;;;;7.75;4.62;;;;;;;14.40;34.42;101601.31;2110711;83;32980;-60
2022/04/17 09:19:16;;;;;;;4.87;3.50;;;;;;;14.22;34.79;101596.28;2110705;83;29335;-60
2022/04/17 09:22:20;;;;;;;6.55;4.87;;;;;;;14.09;35.25;101599.11;2110871;84;27929;-60
2022/04/17 09:25:26;;;;;;;7.47;5.15;;;;;;;14.10;34.36;101597.69;2110919;84;28721;-60
2022/04/17 09:28:37;;;;;;;7.12;3.67;;;;;;;13.93;34.38;101589.45;2113215;83;31256;-60
2022/04/17 09:31:42;;;;;;;3.92;3.05;;;;;;;13.77;34.95;101581.17;2113676;83;33027;-64
2022/04/17 09:34:55;;;;;;;;;;;;;;;13.64;35.09;101573.63;2094863;84;29317;-60
2022/04/17 09:37:59;;;;;;;9.33;3.52;;;;;;;13.57;35.70;101560.00;2065829;85;28143;-60
2022/04/17 09:41:09;;;;;;;5.72;3.33;;;;;;;13.57;35.70;101560.00;2110531;84;28633;-60
2022/04/17 09:44:15;;;;;;;5.17;2.55;;;;;;;13.36;35.33;101558.56;2110044;84;31169;-60
2022/04/17 09:47:26;;;;;;;3.45;3.10;;;;;;;13.26;35.64;101550.92;2066089;84;32968;-59
2022/04/17 09:50:33;;;;;;;5.17;2.85;;;;;;;13.19;35.46;101545.81;2111719;84;29343;-59
2022/04/17 09:53:38;;;;;;;6.15;2.72;;;;;;;13.05;35.47;101546.84;2112582;84;27612;-62
2022/04/17 09:56:46;;;;;;;3.52;2.37;;;;;;;12.95;35.67;101531.98;2110822;84;28618;-66
2022/04/17 09:59:52;;;;;;;3.80;2.20;;;;;;;12.92;35.73;101547.78;2110266;84;31047;-63
2022/04/17 10:02:57;;;;;;;4.83;2.92;;;;;;;12.81;34.57;101545.51;2086750;84;33048;-63
2022/04/17 10:06:02;;;;;;;4.08;2.87;;;;;;;12.70;35.51;101535.16;2115457;83;29382;-64
2022/04/17 10:09:08;;;;;;;6.97;2.35;;;;;;;12.55;35.13;101533.97;2118376;83;32995;-64
2022/04/17 10:12:19;;;;;;;2.83;2.12;;;;;;;12.51;35.18;101529.63;2117992;83;28616;-66
2022/04/17 10:15:24;;;;;;;3.15;1.90;;;;;;;12.42;35.17;101528.61;2117943;83;30738;-69
2022/04/17 10:18:30;;;;;;;;;;;;;;;12.39;35.32;101525.59;2120659;83;33599;-65
2022/04/17 10:21:40;;;;;;;3.20;1.70;;;;;;;12.44;35.95;101518.69;2118356;83;29326;-65
2022/04/17 10:24:57;;;;;;;3.15;2.10;;;;;;;12.48;35.38;101523.50;2117888;83;27907;-66
2022/04/17 10:28:03;;;;;;;3.33;2.72;;;;;;;12.48;35.70;101521.67;2115669;83;28720;-66
2022/04/17 10:31:22;;;;;;;3.65;2.05;;;;;;;12.53;35.75;101521.05;2114811;83;31256;-62
2022/04/17 10:35:21;;;;;;;3.83;2.35;;;;;;;12.54;35.38;101511.16;2114833;83;32935;-61
2022/04/17 10:38:38;;;;;;;2.62;2.02;;;;;;;12.44;35.14;101507.48;2114952;83;29214;-61
2022/04/17 10:41:48;;;;;;;3.92;2.37;;;;;;;12.38;35.68;101496.09;2114805;83;28011;-63
2022/04/17 10:45:08;;;;;;;3.45;2.15;;;;;;;12.44;36.19;101494.05;2094557;83;28654;-64
2022/04/17 10:48:21;;;;;;;3.17;2.05;;;;;;;12.56;35.84;101484.64;2114845;83;31028;-60
2022/04/17 10:51:31;;;;;;;3.55;2.35;;;;;;;12.52;35.54;101476.28;2113592;83;33314;-60
2022/04/17 10:54:55;;;;;;;3.40;2.10;;;;;;;12.45;34.41;101482.36;2114803;83;29489;-61
2022/04/17 10:57:59;;;;;;;4.72;2.22;;;;;;;12.35;33.99;101488.14;2114353;83;27940;-65
2022/04/17 11:01:04;;;;;;;3.30;2.40;;;;;;;12.25;35.18;101482.23;2114779;83;28632;-68
2022/04/17 11:04:43;;;;;;;3.42;2.20;;;;;;;12.23;35.22;101473.36;2113846;84;31104;-63
2022/04/17 11:07:55;;;;;;;3.75;3.30;;;;;;;12.25;35.53;101471.02;2114238;83;32985;-65
2022/04/17 11:11:03;;;;;;;5.80;2.80;;;;;;;12.25;34.77;101466.12;2114869;83;29328;-61
2022/04/17 11:14:26;;;;;;;4.22;2.40;;;;;;;12.15;34.46;101462.45;2115527;83;28173;-61
2022/04/17 11:17:31;;;;;;;3.60;2.08;;;;;;;12.04;35.17;101457.92;2115340;83;30668;-64
2022/04/17 11:20:39;;;;;;;7.45;2.72;;;;;;;12.09;34.72;101466.70;2115783;83;31452;-72
2022/04/17 11:23:54;;;;;;;2.90;1.87;;;;;;;12.05;35.04;101447.59;2115415;83;32963;-59
2022/04/17 11:27:05;;;;;;;3.47;2.27;;;;;;;12.06;35.21;101443.98;2115070;83;29360;-60
2022/04/17 11:30:27;;;;;;;3.70;2.17;;;;;;;12.13;35.47;101452.23;2115037;83;27963;-62
2022/04/17 11:33:33;;;;;;;3.00;2.02;;;;;;;12.15;35.03;101445.44;2115225;83;28756;-69
2022/04/17 11:36:37;;;;;;;2.87;2.30;;;;;;;12.23;35.03;101434.41;2115534;83;31049;-61
2022/04/17 11:39:42;;;;;;;3.72;2.27;;;;;;;12.30;35.35;101427.39;2114955;84;33026;-63
2022/04/17 11:42:54;;;;;;;2.77;2.10;;;;;;;12.39;35.16;101427.50;2115447;83;29378;-70
2022/04/17 11:45:58;;;;;;;4.12;2.90;;;;;;;12.30;34.21;101423.36;2115535;83;27872;-62
2022/04/17 11:49:01;;;;;;;4.17;2.37;;;;;;;12.23;34.22;101414.25;2092346;83;28648;-73
2022/04/17 11:52:17;;;;;;;4.60;2.70;;;;;;;12.15;35.18;101408.73;2115294;83;31014;-60
2022/04/17 11:55:34;;;;;;;;;;;;;;;12.19;35.05;101408.58;2117933;83;33135;-61
2022/04/17 11:58:41;;;;;;;3.72;2.25;;;;;;;12.15;34.59;101402.01;2114856;83;29455;-60
2022/04/17 12:02:08;;;;;;;3.35;2.30;;;;;;;12.19;35.22;101395.15;2115449;83;28101;-59
2022/04/17 12:05:17;;;;;;;4.80;2.50;;;;;;;12.38;35.01;101396.67;2115405;83;28644;-60
2022/04/17 12:08:24;;;;;;;9.05;3.37;;;;;;;12.41;34.31;101390.69;2115170;83;31030;-59
2022/04/17 12:11:33;;;;;;;5.22;2.40;;;;;;;12.31;34.58;101380.77;2115326;83;33590;-67
2022/04/17 12:14:40;;;;;;;2.45;1.77;;;;;;;12.31;34.38;101382.12;2115184;83;29515;-60
2022/04/17 12:17:49;;;;;;;2.95;1.85;;;;;;;12.38;34.95;101377.38;2115435;83;27935;-61
2022/04/17 12:21:05;;;;;;;3.58;2.25;;;;;;;12.31;34.12;101382.12;2095384;84;28761;-62
2022/04/17 12:24:17;;;;;;;2.30;2.10;;;;;;;12.24;34.77;101369.88;2114888;84;32216;-61
2022/04/17 12:27:24;;;;;;;4.12;2.10;;;;;;;12.25;35.07;101358.17;2115457;83;33037;-63
2022/04/17 12:30:28;;;;;;;4.05;2.05;;;;;;;12.28;35.18;101352.68;2118235;83;29365;-60
2022/04/17 12:33:34;;;;;;;4.30;1.90;;;;;;;12.28;34.75;101348.65;2118335;83;33772;-59
2022/04/17 12:36:40;;;;;;;4.17;1.98;;;;;;;12.27;34.77;101349.58;2118149;83;28697;-58
2022/04/17 12:39:44;;;;;;;2.70;1.60;;;;;;;12.29;34.40;101341.48;2118056;83;31004;-63
2022/04/17 12:42:54;;;;;;;5.22;2.17;;;;;;;12.23;34.23;101334.55;2118231;83;33676;-60
2022/04/17 12:46:06;;;;;;;2.60;2.02;;;;;;;12.26;34.56;101330.36;2095801;83;29378;-60
2022/04/17 12:49:19;;;;;;;2.30;1.52;;;;;;;12.28;34.71;101318.23;2117467;83;27941;-62
2022/04/17 12:52:23;;;;;;;4.83;2.05;;;;;;;12.34;34.32;101317.11;2087058;85;31190;-60
2022/04/17 12:55:36;;;;;;;2.72;2.00;;;;;;;12.34;33.97;101312.59;2117836;83;35584;-59
2022/04/17 12:58:59;;;;;;;2.27;1.60;;;;;;;12.34;34.24;101309.05;2095645;83;33062;-59
2022/04/17 13:02:15;;;;;;;3.08;1.70;;;;;;;12.31;33.95;101297.97;2118299;83;29371;-61
2022/04/17 13:05:29;;;;;;;3.25;1.35;;;;;;;12.33;33.90;101290.69;2117905;83;27981;-62
2022/04/17 13:08:36;;;;;;;3.33;1.62;;;;;;;12.31;33.77;101289.91;2117390;83;28643;-61
2022/04/17 13:11:46;;;;;;;2.98;1.67;;;;;;;12.29;34.14;101282.38;2118058;83;31035;-61
2022/04/17 13:14:59;;;;;;;3.15;1.92;;;;;;;12.35;34.54;101271.83;2117603;83;33013;-63
2022/04/17 13:18:06;;;;;;;3.37;2.25;;;;;;;12.41;34.23;101268.91;2118085;83;29323;-62
2022/04/17 13:21:12;;;;;;;3.45;1.90;;;;;;;12.44;32.40;101266.95;2118228;83;27957;-60
2022/04/17 13:24:19;;;;;;;2.62;1.67;;;;;;;12.44;33.50;101261.58;2095547;83;28648;-60
2022/04/17 13:27:26;;;;;;;4.25;2.25;;;;;;;12.42;33.45;101260.77;2107423;83;31073;-58
2022/04/17 13:30:30;;;;;;;3.08;2.20;;;;;;;12.42;33.59;101252.70;2117778;83;33653;-61
2022/04/17 13:33:37;;;;;;;3.00;2.12;;;;;;;12.48;33.83;101237.27;2118262;83;29338;-59
2022/04/17 13:36:46;;;;;;;2.85;2.12;;;;;;;12.50;33.63;101233.56;2118212;83;27913;-63
2022/04/17 13:39:53;;;;;;;3.33;2.10;;;;;;;12.54;33.59;101227.13;2117659;83;29127;-60
2022/04/17 13:42:58;;;;;;;3.30;1.47;;;;;;;12.56;33.70;101227.05;2118136;83;31031;-62
2022/04/17 13:46:04;;;;;;;4.28;1.80;;;;;;;12.54;33.66;101235.64;2118129;83;33619;-61
2022/04/17 13:49:14;;;;;;;2.27;1.70;;;;;;;12.53;33.48;101224.48;2116837;83;29310;-61
2022/04/17 13:52:20;;;;;;;3.52;2.02;;;;;;;12.52;33.39;101227.66;2063558;83;28015;-59
2022/04/17 13:55:28;;;;;;;3.87;1.70;;;;;;;12.49;33.48;101217.03;2118595;83;28813;-60
2022/04/17 13:58:33;;;;;;;2.22;1.45;;;;;;;12.50;33.48;101221.92;2119159;83;31064;-67
2022/04/17 14:01:36;;;;;;;2.20;1.75;;;;;;;12.50;33.17;101217.89;2118205;83;33593;-65
2022/04/17 14:04:42;;;;;;;1.72;1.45;;;;;;;12.45;32.99;101217.64;2118272;83;29337;-61
2022/04/17 14:07:51;;;;;;;5.33;1.92;;;;;;;12.39;32.63;101215.69;2118352;83;27913;-59
2022/04/17 14:10:57;;;;;;;4.60;1.35;;;;;;;12.34;32.57;101209.63;2117819;83;29142;-60
2022/04/17 14:14:02;;;;;;;2.90;1.90;;;;;;;12.30;32.87;101193.63;2118181;83;30998;-58
2022/04/17 14:17:06;;;;;;;3.83;1.95;;;;;;;12.34;33.08;101190.33;2117835;83;35601;-61
2022/04/17 14:20:16;;;;;;;2.97;1.80;;;;;;;12.36;33.14;101197.00;2117943;83;29390;-61
2022/04/17 14:23:20;;;;;;;2.47;1.92;;;;;;;12.28;33.42;101190.13;2118284;83;27874;-59
2022/04/17 14:26:24;;;;;;;5.62;3.65;;;;;;;12.28;33.59;101186.58;2118267;83;28696;-63
2022/04/17 14:29:28;;;;;;;2.72;1.72;;;;;;;12.34;34.16;101182.75;2116044;83;31075;-63
2022/04/17 14:32:31;;;;;;;2.98;1.67;;;;;;;12.38;33.68;101182.55;2090850;85;33691;-67
2022/04/17 14:35:36;;;;;;;2.27;1.42;;;;;;;12.29;33.62;101157.44;2114918;83;29377;-59